createdAt,value
2018-02-08T00:01:01.405Z,19.20
2018-02-08T00:03:28.858Z,18.35
2018-02-08T00:05:56.293Z,20.55
2018-02-08T00:08:23.764Z,19.65
2018-02-08T00:10:51.969Z,20.92
2018-02-08T00:13:19.397Z,19.48
2018-02-08T00:15:47.578Z,19.67
2018-02-08T00:18:15.773Z,18.40
2018-02-08T00:20:43.978Z,20.05
2018-02-08T00:23:11.439Z,18.33
2018-02-08T00:25:38.994Z,18.92
2018-02-08T00:28:07.214Z,18.17
2018-02-08T00:30:34.692Z,20.02
2018-02-08T00:33:02.255Z,18.85
2018-02-08T00:35:30.477Z,20.05
2018-02-08T00:37:58.015Z,20.98
2018-02-08T00:40:26.217Z,21.25
2018-02-08T00:42:53.808Z,20.92
2018-02-08T00:45:21.414Z,18.48
2018-02-08T00:47:48.845Z,20.80
2018-02-08T00:50:16.270Z,20.23
2018-02-08T00:52:44.557Z,20.55
2018-02-08T00:55:12.808Z,21.42
2018-02-08T00:57:40.254Z,19.35
2018-02-08T01:00:07.742Z,17.85
2018-02-08T01:02:35.193Z,19.67
2018-02-08T01:05:02.725Z,18.58
2018-02-08T01:07:30.201Z,18.25
2018-02-08T01:09:58.475Z,21.02
2018-02-08T01:12:25.918Z,19.30
2018-02-08T01:14:53.430Z,21.00
2018-02-08T01:17:20.914Z,20.37
2018-02-08T01:19:48.373Z,21.25
2018-02-08T01:22:16.614Z,19.98
2018-02-08T01:24:44.106Z,21.00
2018-02-08T01:27:11.566Z,22.75
2018-02-08T01:29:39.052Z,20.80
2018-02-08T01:32:06.484Z,20.92
2018-02-08T01:34:33.996Z,21.37
2018-02-08T01:37:02.211Z,19.77
2018-02-08T01:39:29.690Z,19.23
2018-02-08T01:41:57.173Z,20.85
2018-02-08T01:44:24.609Z,19.70
2018-02-08T01:46:52.194Z,19.27
2018-02-08T01:52:20.498Z,20.10
2018-02-08T01:54:48.002Z,21.58
2018-02-08T01:57:15.553Z,20.80
2018-02-08T01:59:43.990Z,20.73
2018-02-08T02:02:11.425Z,20.05
2018-02-08T02:04:38.916Z,20.92
2018-02-08T02:07:06.405Z,19.10
2018-02-08T02:09:34.013Z,21.12
2018-02-08T02:12:01.545Z,20.83
2018-02-08T02:14:29.093Z,22.85
2018-02-08T02:16:56.627Z,21.37
2018-02-08T02:19:24.155Z,23.62
2018-02-08T02:21:51.713Z,21.73
2018-02-08T02:24:19.181Z,22.15
2018-02-08T02:26:46.646Z,22.58
2018-02-08T02:29:14.171Z,20.75
2018-02-08T02:31:42.365Z,22.35
2018-02-08T02:34:09.802Z,22.95
2018-02-08T02:36:38.046Z,21.17
2018-02-08T02:39:05.514Z,23.30
2018-02-08T02:41:33.040Z,21.48
2018-02-08T02:44:00.573Z,23.55
2018-02-08T02:46:28.748Z,23.65
2018-02-08T02:48:56.173Z,23.42
2018-02-08T02:51:24.570Z,22.77
2018-02-08T02:53:51.997Z,21.92
2018-02-08T02:56:19.446Z,23.42
2018-02-08T02:58:46.884Z,23.15
2018-02-08T03:01:14.307Z,23.67
2018-02-08T03:03:41.728Z,24.12
2018-02-08T03:06:09.179Z,22.50
2018-02-08T03:08:36.653Z,24.30
2018-02-08T03:11:04.126Z,23.70
2018-02-08T03:13:31.594Z,25.15
2018-02-08T03:15:59.053Z,25.98
2018-02-08T03:18:26.514Z,24.67
2018-02-08T03:20:54.709Z,24.10
2018-02-08T03:23:23.013Z,23.87
2018-02-08T03:25:51.314Z,24.10
2018-02-08T03:28:18.745Z,23.60
2018-02-08T03:33:46.477Z,23.15
2018-02-08T03:36:13.899Z,23.80
2018-02-08T03:38:41.455Z,23.15
2018-02-08T03:41:08.939Z,24.35
2018-02-08T03:43:36.493Z,24.17
2018-02-08T03:46:04.045Z,24.80
2018-02-08T03:48:31.477Z,24.98
2018-02-08T03:50:58.924Z,25.10
2018-02-08T03:53:26.445Z,24.60
2018-02-08T03:55:54.699Z,26.95
2018-02-08T03:58:22.304Z,25.92
2018-02-08T04:00:50.748Z,25.70
2018-02-08T04:03:18.326Z,26.67
2018-02-08T04:05:45.727Z,24.73
2018-02-08T04:08:14.010Z,25.83
2018-02-08T04:10:41.445Z,25.35
2018-02-08T04:13:08.976Z,27.50
2018-02-08T04:15:37.130Z,26.10
2018-02-08T04:18:05.324Z,25.58
2018-02-08T04:20:33.579Z,25.27
2018-02-08T04:23:01.001Z,26.58
2018-02-08T04:25:28.417Z,26.70
2018-02-08T04:27:55.843Z,26.52
2018-02-08T04:30:23.343Z,25.58
2018-02-08T04:32:50.808Z,24.65
2018-02-08T04:35:18.229Z,26.05
2018-02-08T04:37:46.404Z,25.12
2018-02-08T04:40:26.521Z,24.92
2018-02-08T04:43:05.966Z,23.30
2018-02-08T04:45:45.330Z,24.33
2018-02-08T04:48:12.792Z,24.75
2018-02-08T04:50:40.202Z,24.65
2018-02-08T04:53:07.726Z,23.48
2018-02-08T04:55:35.302Z,25.75
2018-02-08T04:58:02.824Z,24.75
2018-02-08T05:00:30.240Z,23.75
2018-02-08T05:03:00.575Z,25.20
2018-02-08T05:05:28.008Z,24.48
2018-02-08T05:07:55.497Z,24.77
2018-02-08T05:10:23.713Z,24.02
2018-02-08T05:12:51.226Z,23.15
2018-02-08T05:15:18.753Z,24.67
2018-02-08T05:17:46.170Z,25.17
2018-02-08T05:20:13.708Z,26.10
2018-02-08T05:22:41.099Z,26.05
2018-02-08T05:25:08.626Z,25.92
2018-02-08T05:27:36.097Z,26.45
2018-02-08T05:30:03.553Z,24.90
2018-02-08T05:32:31.771Z,23.50
2018-02-08T05:34:59.205Z,25.27
2018-02-08T05:37:26.771Z,24.60
2018-02-08T05:39:54.311Z,24.70
2018-02-08T05:42:21.734Z,25.23
2018-02-08T05:44:49.223Z,25.75
2018-02-08T05:47:16.678Z,25.80
2018-02-08T05:49:44.123Z,26.40
2018-02-08T05:52:12.326Z,26.45
2018-02-08T05:54:39.752Z,27.77
2018-02-08T05:57:07.206Z,27.15
2018-02-08T05:59:34.658Z,26.33
2018-02-08T06:02:02.160Z,23.85
2018-02-08T06:04:29.778Z,25.73
2018-02-08T06:06:57.212Z,25.98
2018-02-08T06:09:25.459Z,26.05
2018-02-08T06:11:53.015Z,26.40
2018-02-08T06:14:21.264Z,26.60
2018-02-08T06:16:48.737Z,26.12
2018-02-08T06:19:16.188Z,26.00
2018-02-08T06:21:43.605Z,27.50
2018-02-08T06:24:11.836Z,26.87
2018-02-08T06:26:39.292Z,27.08
2018-02-08T06:29:06.725Z,26.45
2018-02-08T06:31:34.142Z,24.33
2018-02-08T06:34:01.557Z,25.70
2018-02-08T06:36:28.969Z,25.75
2018-02-08T06:38:56.466Z,24.87
2018-02-08T06:41:29.014Z,24.80
2018-02-08T06:43:57.177Z,21.85
2018-02-08T06:46:25.362Z,23.42
2018-02-08T06:48:53.611Z,22.85
2018-02-08T06:51:21.086Z,24.05
2018-02-08T06:53:48.613Z,24.40
2018-02-08T06:56:16.026Z,24.33
2018-02-08T06:58:43.453Z,23.55
2018-02-08T07:01:10.877Z,23.75
2018-02-08T07:03:38.302Z,24.42
2018-02-08T07:06:05.733Z,23.25
2018-02-08T07:08:33.969Z,25.27
2018-02-08T07:11:01.557Z,25.15
2018-02-08T07:13:28.977Z,25.60
2018-02-08T07:15:56.408Z,24.45
2018-02-08T07:18:23.840Z,20.73
2018-02-08T07:20:51.300Z,25.35
2018-02-08T07:23:18.758Z,22.73
2018-02-08T07:25:46.183Z,25.90
2018-02-08T07:28:13.601Z,25.50
2018-02-08T07:30:41.146Z,24.42
2018-02-08T07:33:09.343Z,25.60
2018-02-08T07:35:36.815Z,21.90
2018-02-08T07:38:04.202Z,25.80
2018-02-08T07:40:31.752Z,24.67
2018-02-08T07:42:59.928Z,23.75
2018-02-08T07:45:27.342Z,26.05
2018-02-08T07:47:54.757Z,27.48
2018-02-08T07:50:22.193Z,25.85
2018-02-08T07:52:49.619Z,26.65
2018-02-08T07:55:17.078Z,25.52
2018-02-08T07:57:44.538Z,26.23
2018-02-08T08:00:12.019Z,27.30
2018-02-08T08:02:39.476Z,26.80
2018-02-08T08:05:06.963Z,27.60
2018-02-08T08:07:34.420Z,25.23
2018-02-08T08:10:01.850Z,27.02
2018-02-08T08:12:29.414Z,28.20
2018-02-08T08:14:56.828Z,27.55
2018-02-08T08:17:24.299Z,30.10
2018-02-08T08:19:52.602Z,27.98
2018-02-08T08:22:20.082Z,32.38
2018-02-08T08:24:47.488Z,34.92
2018-02-08T08:27:15.716Z,30.62
2018-02-08T08:29:43.176Z,30.42
2018-02-08T08:32:10.599Z,30.23
2018-02-08T08:34:38.022Z,29.80
2018-02-08T08:37:05.481Z,29.42
2018-02-08T08:39:32.954Z,30.08
2018-02-08T08:42:00.451Z,29.63
2018-02-08T08:44:27.869Z,32.30
2018-02-08T08:46:56.062Z,30.12
2018-02-08T08:49:23.496Z,32.13
2018-02-08T08:51:51.022Z,30.15
2018-02-08T08:54:18.457Z,31.08
2018-02-08T08:56:46.652Z,29.80
2018-02-08T08:59:14.167Z,30.50
2018-02-08T09:01:41.621Z,29.37
2018-02-08T09:04:09.076Z,29.45
2018-02-08T09:06:37.254Z,30.48
2018-02-08T09:09:04.708Z,30.88
2018-02-08T09:11:32.098Z,30.60
2018-02-08T09:13:59.567Z,31.77
2018-02-08T09:16:27.721Z,31.55
2018-02-08T09:18:55.917Z,31.10
2018-02-08T09:21:24.225Z,29.30
2018-02-08T09:23:52.440Z,30.80
2018-02-08T09:26:19.882Z,29.02
2018-02-08T09:28:47.302Z,28.58
2018-02-08T09:31:14.738Z,31.75
2018-02-08T09:33:42.291Z,32.75
2018-02-08T09:36:10.474Z,29.55
2018-02-08T09:38:38.673Z,27.60
2018-02-08T09:41:06.137Z,30.20
2018-02-08T09:43:33.601Z,31.90
2018-02-08T09:46:01.749Z,32.10
2018-02-08T09:48:29.977Z,33.00
2018-02-08T09:50:57.438Z,31.02
2018-02-08T09:53:24.878Z,29.67
2018-02-08T09:55:53.067Z,32.03
2018-02-08T09:58:21.274Z,31.48
2018-02-08T10:00:48.730Z,34.00
2018-02-08T10:03:16.906Z,32.22
2018-02-08T10:05:45.140Z,32.63
2018-02-08T10:08:12.595Z,32.83
2018-02-08T10:10:40.061Z,27.55
2018-02-08T10:13:07.479Z,30.92
2018-02-08T10:15:34.891Z,32.78
2018-02-08T10:18:02.317Z,31.85
2018-02-08T10:20:29.835Z,33.67
2018-02-08T10:22:57.260Z,32.10
2018-02-08T10:25:24.696Z,33.83
2018-02-08T10:27:52.141Z,31.20
2018-02-08T10:30:19.607Z,34.90
2018-02-08T10:32:47.027Z,32.05
2018-02-08T10:35:14.441Z,31.05
2018-02-08T10:37:41.935Z,33.90
2018-02-08T10:40:09.367Z,33.65
2018-02-08T10:42:37.586Z,33.28
2018-02-08T10:45:05.140Z,32.00
2018-02-08T10:47:33.345Z,34.58
2018-02-08T10:50:00.784Z,31.10
2018-02-08T10:52:28.298Z,35.38
2018-02-08T10:54:55.736Z,35.35
2018-02-08T10:57:23.149Z,33.08
2018-02-08T10:59:50.683Z,35.00
2018-02-08T11:02:18.096Z,34.22
2018-02-08T11:04:45.781Z,38.85
2018-02-08T11:07:13.968Z,38.17
2018-02-08T11:09:42.177Z,37.95
2018-02-08T11:12:10.371Z,35.80
2018-02-08T11:14:37.829Z,38.38
2018-02-08T11:17:05.259Z,38.47
2018-02-08T11:19:34.181Z,42.13
2018-02-08T11:22:02.402Z,40.20
2018-02-08T11:24:29.883Z,39.50
2018-02-08T11:26:57.298Z,40.25
2018-02-08T11:29:25.007Z,39.80
2018-02-08T11:31:53.221Z,39.47
2018-02-08T11:34:20.665Z,40.03
2018-02-08T11:36:48.116Z,41.83
2018-02-08T11:39:15.552Z,39.50
2018-02-08T11:41:43.083Z,39.00
2018-02-08T11:44:10.534Z,38.72
2018-02-08T11:46:38.018Z,41.83
2018-02-08T11:49:05.422Z,38.00
2018-02-08T11:51:32.861Z,40.12
2018-02-08T11:54:00.313Z,38.88
2018-02-08T11:56:27.757Z,39.00
2018-02-08T11:58:55.948Z,38.75
2018-02-08T12:01:23.944Z,37.97
2018-02-08T12:03:51.411Z,39.10
2018-02-08T12:06:18.884Z,39.10
2018-02-08T12:08:46.299Z,37.65
2018-02-08T12:11:13.732Z,38.92
2018-02-08T12:13:41.148Z,36.13
2018-02-08T12:16:08.573Z,37.95
2018-02-08T12:18:36.018Z,37.58
2018-02-08T12:21:03.433Z,36.97
2018-02-08T12:23:30.847Z,35.85
2018-02-08T12:25:58.369Z,40.08
2018-02-08T12:28:25.714Z,36.80
2018-02-08T12:30:53.158Z,36.28
2018-02-08T12:33:20.649Z,36.30
2018-02-08T12:35:48.049Z,34.88
2018-02-08T12:38:15.464Z,35.45
2018-02-08T12:40:42.949Z,38.20
2018-02-08T12:43:10.391Z,37.90
2018-02-08T12:45:38.578Z,35.25
2018-02-08T12:48:06.763Z,36.05
2018-02-08T12:50:34.351Z,36.88
2018-02-08T12:53:02.541Z,38.67
2018-02-08T12:55:30.007Z,37.80
2018-02-08T12:57:57.413Z,35.50
2018-02-08T13:00:24.849Z,38.20
2018-02-08T13:02:52.330Z,37.45
2018-02-08T13:05:19.769Z,35.83
2018-02-08T13:07:47.243Z,35.63
2018-02-08T13:10:14.668Z,36.88
2018-02-08T13:12:42.228Z,37.20
2018-02-08T13:15:09.618Z,36.90
2018-02-08T13:17:37.805Z,35.33
2018-02-08T13:20:06.039Z,37.67
2018-02-08T13:22:33.477Z,32.58
2018-02-08T13:25:01.667Z,38.05
2018-02-08T13:27:29.867Z,37.80
2018-02-08T13:29:57.354Z,38.80
2018-02-08T13:32:24.784Z,37.88
2018-02-08T13:34:52.980Z,39.00
2018-02-08T13:37:21.205Z,36.67
2018-02-08T13:39:52.328Z,37.53
2018-02-08T13:42:23.031Z,37.13
2018-02-08T13:44:50.515Z,39.75
2018-02-08T13:47:23.657Z,38.53
2018-02-08T13:49:53.592Z,37.28
2018-02-08T13:52:27.373Z,36.70
2018-02-08T13:55:01.242Z,37.07
2018-02-08T14:00:47.085Z,38.20
2018-02-08T14:03:14.524Z,37.07
2018-02-08T14:05:41.953Z,37.90
2018-02-08T14:08:09.383Z,40.30
2018-02-08T14:10:36.810Z,38.93
2018-02-08T14:13:05.067Z,36.57
2018-02-08T14:15:32.450Z,39.57
2018-02-08T14:17:59.990Z,40.10
2018-02-08T14:20:27.406Z,41.37
2018-02-08T14:22:54.872Z,40.33
2018-02-08T14:25:22.312Z,42.63
2018-02-08T14:27:50.004Z,41.77
2018-02-08T14:30:17.418Z,45.70
2018-02-08T14:32:44.848Z,44.83
2018-02-08T14:35:12.257Z,44.67
2018-02-08T14:37:39.677Z,45.83
2018-02-08T14:40:07.110Z,44.77
2018-02-08T14:42:34.529Z,44.87
2018-02-08T14:45:02.046Z,45.93
2018-02-08T14:47:29.513Z,43.50
2018-02-08T14:49:56.981Z,43.27
2018-02-08T14:52:24.468Z,44.00
2018-02-08T14:54:51.890Z,42.97
2018-02-08T14:57:20.074Z,45.60
2018-02-08T14:59:48.272Z,44.50
2018-02-08T15:02:15.690Z,44.38
2018-02-08T15:04:43.130Z,45.10
2018-02-08T15:07:10.687Z,45.03
2018-02-08T15:09:38.119Z,45.05
2018-02-08T15:12:05.581Z,45.70
2018-02-08T15:14:33.014Z,46.25
2018-02-08T15:17:00.472Z,46.90
2018-02-08T15:19:27.952Z,44.28
2018-02-08T15:21:55.410Z,45.88
2018-02-08T15:24:22.874Z,42.53
2018-02-08T15:26:50.399Z,45.08
2018-02-08T15:29:17.821Z,45.42
2018-02-08T15:31:45.263Z,47.67
2018-02-08T15:34:13.499Z,43.87
2018-02-08T15:36:40.949Z,45.03
2018-02-08T15:39:08.389Z,41.50
2018-02-08T15:41:35.807Z,45.88
2018-02-08T15:44:03.240Z,44.25
2018-02-08T15:46:30.711Z,46.10
2018-02-08T15:48:58.910Z,44.83
2018-02-08T15:51:26.316Z,42.78
2018-02-08T15:53:53.733Z,45.60
2018-02-08T15:56:21.164Z,45.55
2018-02-08T15:58:48.752Z,44.38
2018-02-08T16:03:47.177Z,44.42
2018-02-08T16:06:15.377Z,43.47
2018-02-08T16:08:42.807Z,42.20
2018-02-08T16:11:10.226Z,41.20
2018-02-08T16:13:37.720Z,41.35
2018-02-08T16:16:05.149Z,42.30
2018-02-08T16:18:32.585Z,41.67
2018-02-08T16:21:00.027Z,41.53
2018-02-08T16:23:27.421Z,43.22
2018-02-08T16:25:55.616Z,41.67
2018-02-08T16:28:24.035Z,43.03
2018-02-08T16:30:52.215Z,41.37
2018-02-08T16:33:19.646Z,41.55
2018-02-08T16:35:47.074Z,43.17
2018-02-08T16:38:14.522Z,44.90
2018-02-08T16:40:41.940Z,43.90
2018-02-08T16:43:09.467Z,45.10
2018-02-08T16:45:36.886Z,42.25
2018-02-08T16:48:04.300Z,45.15
2018-02-08T16:50:31.743Z,44.58
2018-02-08T16:52:59.952Z,47.47
2018-02-08T16:55:28.130Z,44.72
2018-02-08T16:57:55.567Z,43.60
2018-02-08T17:00:23.093Z,47.90
2018-02-08T17:02:50.565Z,45.92
2018-02-08T17:05:17.983Z,50.75
2018-02-08T17:07:46.169Z,52.60
2018-02-08T17:10:13.609Z,50.53
2018-02-08T17:15:14.947Z,49.60
2018-02-08T17:17:42.421Z,45.72
2018-02-08T17:20:09.874Z,48.58
2018-02-08T17:22:38.061Z,45.90
2018-02-08T17:25:06.266Z,48.67
2018-02-08T17:27:33.735Z,45.20
2018-02-08T17:30:01.207Z,49.10
2018-02-08T17:32:28.646Z,45.55
2018-02-08T17:34:56.830Z,44.45
2018-02-08T17:37:25.049Z,49.45
2018-02-08T17:39:52.595Z,43.85
2018-02-08T17:42:20.105Z,44.00
2018-02-08T17:44:47.528Z,44.03
2018-02-08T17:47:15.715Z,45.22
2018-02-08T17:49:43.901Z,44.90
2018-02-08T17:52:12.103Z,46.03
2018-02-08T17:54:39.593Z,45.12
2018-02-08T17:57:07.145Z,47.10
2018-02-08T17:59:34.666Z,45.63
2018-02-08T18:02:02.087Z,45.35
2018-02-08T18:04:30.353Z,45.58
2018-02-08T18:06:57.790Z,44.78
2018-02-08T18:09:25.245Z,46.00
2018-02-08T18:11:53.457Z,43.80
2018-02-08T18:14:20.919Z,46.53
2018-02-08T18:16:49.119Z,45.47
2018-02-08T18:19:16.694Z,46.88
2018-02-08T18:21:44.859Z,47.22
2018-02-08T18:24:13.058Z,45.85
2018-02-08T18:26:40.569Z,44.20
2018-02-08T18:29:08.000Z,46.03
2018-02-08T18:31:36.181Z,44.70
2018-02-08T18:34:04.389Z,45.42
2018-02-08T18:36:31.819Z,45.97
2018-02-08T18:38:59.239Z,44.78
2018-02-08T18:41:26.713Z,44.55
2018-02-08T18:43:54.149Z,46.47
2018-02-08T18:46:22.380Z,47.15
2018-02-08T18:48:49.795Z,47.97
2018-02-08T18:51:17.998Z,47.78
2018-02-08T18:53:45.422Z,49.13
2018-02-08T18:56:12.901Z,47.60
2018-02-08T18:58:40.327Z,49.17
2018-02-08T19:01:08.509Z,46.90
2018-02-08T19:03:35.923Z,45.60
2018-02-08T19:06:03.370Z,46.45
2018-02-08T19:08:30.799Z,47.60
2018-02-08T19:10:58.270Z,45.17
2018-02-08T19:13:25.717Z,44.35
2018-02-08T19:15:53.959Z,45.22
2018-02-08T19:18:21.506Z,45.42
2018-02-08T19:20:49.709Z,46.45
2018-02-08T19:23:17.156Z,46.28
2018-02-08T19:25:45.513Z,45.28
2018-02-08T19:28:13.751Z,46.88
2018-02-08T19:30:41.178Z,46.75
2018-02-08T19:33:09.371Z,48.05
2018-02-08T19:35:36.817Z,50.17
2018-02-08T19:38:04.329Z,46.08
2018-02-08T19:40:31.819Z,47.88
2018-02-08T19:42:59.272Z,50.20
2018-02-08T19:45:26.727Z,51.88
2018-02-08T19:47:54.184Z,48.35
2018-02-08T19:50:22.419Z,48.10
2018-02-08T19:52:50.137Z,48.78
2018-02-08T19:55:18.362Z,46.63
2018-02-08T19:57:45.859Z,46.90
2018-02-08T20:00:13.322Z,46.85
2018-02-08T20:02:40.826Z,44.45
2018-02-08T20:05:09.075Z,46.05
2018-02-08T20:07:36.507Z,48.83
2018-02-08T20:10:04.090Z,46.30
2018-02-08T20:12:31.569Z,49.20
2018-02-08T20:14:59.055Z,48.92
2018-02-08T20:17:26.484Z,46.22
2018-02-08T20:19:53.993Z,48.50
2018-02-08T20:22:21.605Z,48.30
2018-02-08T20:24:49.846Z,47.85
2018-02-08T20:27:17.266Z,50.25
2018-02-08T20:29:45.492Z,46.70
2018-02-08T20:32:12.942Z,46.60
2018-02-08T20:34:40.399Z,48.22
2018-02-08T20:37:09.350Z,42.92
2018-02-08T20:39:36.814Z,47.85
2018-02-08T20:42:04.316Z,47.28
2018-02-08T20:44:31.794Z,49.30
2018-02-08T20:46:59.285Z,45.67
2018-02-08T20:49:27.472Z,47.75
2018-02-08T20:51:54.970Z,49.38
2018-02-08T20:54:22.420Z,47.35
2018-02-08T20:56:49.907Z,46.55
2018-02-08T20:59:17.448Z,50.08
2018-02-08T21:01:44.911Z,47.38
2018-02-08T21:04:12.381Z,46.75
2018-02-08T21:06:39.805Z,50.65
2018-02-08T21:09:07.277Z,44.42
2018-02-08T21:11:34.832Z,50.92
2018-02-08T21:14:02.308Z,49.60
2018-02-08T21:16:29.757Z,50.45
2018-02-08T21:18:58.193Z,49.97
2018-02-08T21:21:25.653Z,50.83
2018-02-08T21:23:53.076Z,52.45
2018-02-08T21:26:21.312Z,52.08
2018-02-08T21:28:49.107Z,52.78
2018-02-08T21:31:16.557Z,52.05
2018-02-08T21:33:44.013Z,51.72
2018-02-08T21:36:11.453Z,51.03
2018-02-08T21:38:38.931Z,49.70
2018-02-08T21:41:06.376Z,48.70
2018-02-08T21:43:33.820Z,50.58
2018-02-08T21:46:02.037Z,53.92
2018-02-08T21:48:29.497Z,52.72
2018-02-08T21:50:57.016Z,52.65
2018-02-08T21:53:24.508Z,52.17
2018-02-08T21:55:52.002Z,50.95
2018-02-08T21:58:20.258Z,51.45
2018-02-08T22:00:47.766Z,54.30
2018-02-08T22:03:15.238Z,56.83
2018-02-08T22:05:43.489Z,52.92
2018-02-08T22:08:10.907Z,55.45
2018-02-08T22:10:38.358Z,49.65
2018-02-08T22:13:05.893Z,53.40
2018-02-08T22:15:33.311Z,52.83
2018-02-08T22:18:00.777Z,51.55
2018-02-08T22:20:28.327Z,52.72
2018-02-08T22:22:55.722Z,52.42
2018-02-08T22:25:23.154Z,51.85
2018-02-08T22:27:51.379Z,51.08
2018-02-08T22:30:18.785Z,51.13
2018-02-08T22:32:46.962Z,54.05
2018-02-08T22:35:14.462Z,55.30
2018-02-08T22:37:42.640Z,54.15
2018-02-08T22:40:10.839Z,55.85
2018-02-08T22:42:39.027Z,52.95
2018-02-08T22:45:07.305Z,51.67
2018-02-08T22:47:35.489Z,50.75
2018-02-08T22:50:03.681Z,53.03
2018-02-08T22:52:31.869Z,50.60
2018-02-08T22:55:00.088Z,52.78
2018-02-08T22:57:27.532Z,49.35
2018-02-08T22:59:55.705Z,52.20
2018-02-08T23:02:23.902Z,51.40
2018-02-08T23:04:52.102Z,51.00
2018-02-08T23:07:19.568Z,50.17
2018-02-08T23:09:47.006Z,51.15
2018-02-08T23:12:15.193Z,48.47
2018-02-08T23:14:43.381Z,51.10
2018-02-08T23:17:11.567Z,48.80
2018-02-08T23:19:39.791Z,51.92
2018-02-08T23:22:07.207Z,51.85
2018-02-08T23:24:34.644Z,47.80
2018-02-08T23:27:02.055Z,50.90
2018-02-08T23:29:29.555Z,51.33
2018-02-08T23:31:57.020Z,49.50
2018-02-08T23:34:24.496Z,48.15
2018-02-08T23:36:52.653Z,49.42
2018-02-08T23:39:20.846Z,48.45
2018-02-08T23:41:49.136Z,45.35
2018-02-08T23:44:16.572Z,50.28
2018-02-08T23:46:44.010Z,50.97
2018-02-08T23:49:11.472Z,49.03
2018-02-08T23:51:38.932Z,50.72
2018-02-08T23:54:06.383Z,51.05
2018-02-08T23:56:34.581Z,50.78
2018-02-08T23:59:02.002Z,51.58
